sensor_id;sensor_type;location;lat;lon;timestamp;pressure;altitude;pressure_sealevel;temperature;humidity
31538;BME280;18147;51.952;6.146;2022-10-26T00:00:28;101387.38;;;8.41;100.00
31538;BME280;18147;51.952;6.146;2022-10-26T00:02:54;101393.66;;;8.38;100.00
31538;BME280;18147;51.952;6.146;2022-10-26T00:05:20;101393.63;;;8.40;100.00
31538;BME280;18147;51.952;6.146;2022-10-26T00:07:46;101387.66;;;8.33;100.00
31538;BME280;18147;51.952;6.146;2022-10-26T00:10:12;101391.34;;;8.30;100.00
31538;BME280;18147;51.952;6.146;2022-10-26T00:12:37;101380.50;;;8.35;100.00
31538;BME280;18147;51.952;6.146;2022-10-26T00:15:03;101374.31;;;8.35;100.00
31538;BME280;18147;51.952;6.146;2022-10-26T00:17:29;101367.09;;;8.38;100.00
31538;BME280;18147;51.952;6.146;2022-10-26T00:19:54;101366.97;;;8.41;100.00
31538;BME280;18147;51.952;6.146;2022-10-26T00:22:20;101358.91;;;8.43;100.00
31538;BME280;18147;51.952;6.146;2022-10-26T00:24:45;101357.63;;;8.51;100.00
31538;BME280;18147;51.952;6.146;2022-10-26T00:27:11;101352.31;;;8.51;100.00
31538;BME280;18147;51.952;6.146;2022-10-26T00:29:36;101354.19;;;8.49;100.00
31538;BME280;18147;51.952;6.146;2022-10-26T00:32:01;101352.41;;;8.50;100.00
31538;BME280;18147;51.952;6.146;2022-10-26T00:34:27;101358.84;;;8.63;100.00
31538;BME280;18147;51.952;6.146;2022-10-26T00:36:52;101351.16;;;8.76;100.00
31538;BME280;18147;51.952;6.146;2022-10-26T00:39:18;101355.09;;;8.86;100.00
31538;BME280;18147;51.952;6.146;2022-10-26T00:41:43;101353.38;;;8.85;100.00
31538;BME280;18147;51.952;6.146;2022-10-26T00:47:44;101352.53;;;8.85;100.00
31538;BME280;18147;51.952;6.146;2022-10-26T00:50:19;101349.44;;;8.94;100.00
31538;BME280;18147;51.952;6.146;2022-10-26T00:52:45;101344.97;;;8.94;100.00
31538;BME280;18147;51.952;6.146;2022-10-26T00:55:11;101347.91;;;8.88;100.00
31538;BME280;18147;51.952;6.146;2022-10-26T00:57:38;101344.25;;;8.91;100.00
31538;BME280;18147;51.952;6.146;2022-10-26T01:00:06;101342.66;;;8.87;100.00
31538;BME280;18147;51.952;6.146;2022-10-26T01:02:32;101349.19;;;8.98;100.00
31538;BME280;18147;51.952;6.146;2022-10-26T01:04:58;101349.34;;;8.95;100.00
31538;BME280;18147;51.952;6.146;2022-10-26T01:07:26;101352.34;;;9.06;100.00
31538;BME280;18147;51.952;6.146;2022-10-26T01:09:52;101347.56;;;9.13;100.00
31538;BME280;18147;51.952;6.146;2022-10-26T01:12:18;101344.91;;;9.13;100.00
31538;BME280;18147;51.952;6.146;2022-10-26T01:14:44;101341.47;;;9.11;100.00
31538;BME280;18147;51.952;6.146;2022-10-26T01:22:28;101329.53;;;9.20;100.00
31538;BME280;18147;51.952;6.146;2022-10-26T01:26:01;101326.28;;;9.13;100.00
31538;BME280;18147;51.952;6.146;2022-10-26T01:31:10;101316.22;;;9.37;100.00
31538;BME280;18147;51.952;6.146;2022-10-26T01:33:42;101315.22;;;9.40;100.00
31538;BME280;18147;51.952;6.146;2022-10-26T01:36:29;101312.22;;;9.28;100.00
31538;BME280;18147;51.952;6.146;2022-10-26T01:39:13;101303.78;;;9.38;100.00
31538;BME280;18147;51.952;6.146;2022-10-26T01:41:44;101299.78;;;9.29;100.00
31538;BME280;18147;51.952;6.146;2022-10-26T01:44:27;101290.47;;;9.38;100.00
31538;BME280;18147;51.952;6.146;2022-10-26T01:46:57;101291.81;;;9.46;100.00
31538;BME280;18147;51.952;6.146;2022-10-26T01:49:29;101281.00;;;9.49;100.00
31538;BME280;18147;51.952;6.146;2022-10-26T01:51:57;101286.47;;;9.46;100.00
31538;BME280;18147;51.952;6.146;2022-10-26T01:54:22;101285.78;;;9.60;100.00
31538;BME280;18147;51.952;6.146;2022-10-26T01:56:54;101273.16;;;9.46;100.00
31538;BME280;18147;51.952;6.146;2022-10-26T01:59:42;101265.56;;;9.56;100.00
31538;BME280;18147;51.952;6.146;2022-10-26T02:02:36;101257.97;;;9.48;100.00
31538;BME280;18147;51.952;6.146;2022-10-26T02:05:27;101248.03;;;9.52;100.00
31538;BME280;18147;51.952;6.146;2022-10-26T02:13:40;101281.78;;;9.51;100.00
31538;BME280;18147;51.952;6.146;2022-10-26T02:16:12;101287.34;;;9.47;100.00
31538;BME280;18147;51.952;6.146;2022-10-26T02:21:21;101284.03;;;9.42;100.00
31538;BME280;18147;51.952;6.146;2022-10-26T02:23:49;101282.78;;;9.31;100.00
31538;BME280;18147;51.952;6.146;2022-10-26T02:26:19;101277.09;;;9.39;100.00
31538;BME280;18147;51.952;6.146;2022-10-26T02:28:49;101279.19;;;9.50;100.00
31538;BME280;18147;51.952;6.146;2022-10-26T02:31:16;101274.66;;;9.52;100.00
31538;BME280;18147;51.952;6.146;2022-10-26T02:33:48;101275.59;;;9.51;100.00
31538;BME280;18147;51.952;6.146;2022-10-26T02:36:18;101272.28;;;9.63;100.00
31538;BME280;18147;51.952;6.146;2022-10-26T02:38:46;101265.38;;;9.76;100.00
31538;BME280;18147;51.952;6.146;2022-10-26T02:41:13;101267.19;;;9.76;100.00
31538;BME280;18147;51.952;6.146;2022-10-26T02:43:56;101257.00;;;10.00;100.00
31538;BME280;18147;51.952;6.146;2022-10-26T02:46:24;101257.19;;;10.12;100.00
31538;BME280;18147;51.952;6.146;2022-10-26T02:48:52;101250.28;;;10.26;100.00
31538;BME280;18147;51.952;6.146;2022-10-26T02:51:30;101248.31;;;10.29;100.00
31538;BME280;18147;51.952;6.146;2022-10-26T02:57:06;101243.50;;;10.36;100.00
31538;BME280;18147;51.952;6.146;2022-10-26T02:59:35;101243.75;;;10.31;100.00
31538;BME280;18147;51.952;6.146;2022-10-26T03:02:03;101239.19;;;10.33;100.00
31538;BME280;18147;51.952;6.146;2022-10-26T03:04:30;101245.38;;;10.34;100.00
31538;BME280;18147;51.952;6.146;2022-10-26T03:06:56;101245.09;;;10.38;100.00
31538;BME280;18147;51.952;6.146;2022-10-26T03:09:22;101241.94;;;10.32;100.00
31538;BME280;18147;51.952;6.146;2022-10-26T03:11:48;101242.09;;;10.29;100.00
31538;BME280;18147;51.952;6.146;2022-10-26T03:14:14;101234.38;;;10.24;100.00
31538;BME280;18147;51.952;6.146;2022-10-26T03:16:39;101230.25;;;10.34;100.00
31538;BME280;18147;51.952;6.146;2022-10-26T03:19:05;101237.47;;;10.32;100.00
31538;BME280;18147;51.952;6.146;2022-10-26T03:21:30;101229.81;;;10.42;100.00
31538;BME280;18147;51.952;6.146;2022-10-26T03:23:56;101229.88;;;10.56;100.00
31538;BME280;18147;51.952;6.146;2022-10-26T03:26:21;101229.72;;;10.59;100.00
31538;BME280;18147;51.952;6.146;2022-10-26T03:28:47;101226.09;;;10.60;100.00
31538;BME280;18147;51.952;6.146;2022-10-26T03:31:12;101235.22;;;10.56;100.00
31538;BME280;18147;51.952;6.146;2022-10-26T03:33:37;101229.38;;;10.66;100.00
31538;BME280;18147;51.952;6.146;2022-10-26T03:36:03;101232.53;;;10.72;100.00
31538;BME280;18147;51.952;6.146;2022-10-26T03:38:29;101228.91;;;10.73;100.00
31538;BME280;18147;51.952;6.146;2022-10-26T03:40:54;101237.59;;;10.77;100.00
31538;BME280;18147;51.952;6.146;2022-10-26T03:43:19;101234.09;;;10.76;100.00
31538;BME280;18147;51.952;6.146;2022-10-26T03:45:45;101229.44;;;10.80;100.00
31538;BME280;18147;51.952;6.146;2022-10-26T03:48:11;101227.53;;;10.82;100.00
31538;BME280;18147;51.952;6.146;2022-10-26T03:50:36;101225.72;;;10.82;100.00
31538;BME280;18147;51.952;6.146;2022-10-26T03:53:02;101224.09;;;10.80;100.00
31538;BME280;18147;51.952;6.146;2022-10-26T03:55:27;101230.03;;;10.85;100.00
31538;BME280;18147;51.952;6.146;2022-10-26T03:57:53;101231.25;;;10.79;100.00
31538;BME280;18147;51.952;6.146;2022-10-26T04:00:18;101231.84;;;10.84;100.00
31538;BME280;18147;51.952;6.146;2022-10-26T04:02:45;101225.72;;;10.82;100.00
31538;BME280;18147;51.952;6.146;2022-10-26T04:05:17;101220.88;;;10.89;100.00
31538;BME280;18147;51.952;6.146;2022-10-26T04:07:42;101219.84;;;10.92;100.00
31538;BME280;18147;51.952;6.146;2022-10-26T04:10:09;101222.03;;;10.99;100.00
31538;BME280;18147;51.952;6.146;2022-10-26T04:12:38;101211.38;;;10.99;100.00
31538;BME280;18147;51.952;6.146;2022-10-26T04:15:04;101216.06;;;10.96;100.00
31538;BME280;18147;51.952;6.146;2022-10-26T04:17:31;101215.69;;;11.02;100.00
31538;BME280;18147;51.952;6.146;2022-10-26T04:19:56;101209.59;;;11.00;100.00
31538;BME280;18147;51.952;6.146;2022-10-26T04:22:22;101217.50;;;11.01;100.00
31538;BME280;18147;51.952;6.146;2022-10-26T04:24:47;101219.00;;;10.91;100.00
31538;BME280;18147;51.952;6.146;2022-10-26T04:27:14;101221.34;;;10.81;100.00
31538;BME280;18147;51.952;6.146;2022-10-26T04:29:39;101217.03;;;10.79;100.00
31538;BME280;18147;51.952;6.146;2022-10-26T04:32:05;101216.63;;;10.71;100.00
31538;BME280;18147;51.952;6.146;2022-10-26T04:34:32;101220.50;;;10.65;100.00
31538;BME280;18147;51.952;6.146;2022-10-26T04:36:57;101214.84;;;10.55;100.00
31538;BME280;18147;51.952;6.146;2022-10-26T04:39:22;101220.25;;;10.54;100.00
31538;BME280;18147;51.952;6.146;2022-10-26T04:41:48;101211.75;;;10.47;100.00
31538;BME280;18147;51.952;6.146;2022-10-26T04:44:14;101217.56;;;10.54;100.00
31538;BME280;18147;51.952;6.146;2022-10-26T04:46:39;101222.47;;;10.61;100.00
31538;BME280;18147;51.952;6.146;2022-10-26T04:49:05;101215.81;;;10.54;100.00
31538;BME280;18147;51.952;6.146;2022-10-26T04:51:30;101217.56;;;10.54;100.00
31538;BME280;18147;51.952;6.146;2022-10-26T04:53:56;101221.72;;;10.59;100.00
31538;BME280;18147;51.952;6.146;2022-10-26T04:56:22;101220.69;;;10.46;100.00
31538;BME280;18147;51.952;6.146;2022-10-26T04:58:48;101222.50;;;10.46;100.00
31538;BME280;18147;51.952;6.146;2022-10-26T05:01:13;101218.28;;;10.42;100.00
31538;BME280;18147;51.952;6.146;2022-10-26T05:03:39;101211.94;;;10.44;100.00
31538;BME280;18147;51.952;6.146;2022-10-26T05:06:04;101214.06;;;10.53;100.00
31538;BME280;18147;51.952;6.146;2022-10-26T05:08:30;101216.72;;;10.53;100.00
31538;BME280;18147;51.952;6.146;2022-10-26T05:10:55;101212.50;;;10.65;100.00
31538;BME280;18147;51.952;6.146;2022-10-26T05:13:21;101216.78;;;10.68;100.00
31538;BME280;18147;51.952;6.146;2022-10-26T05:15:46;101209.59;;;10.84;100.00
31538;BME280;18147;51.952;6.146;2022-10-26T05:18:12;101206.72;;;10.73;100.00
31538;BME280;18147;51.952;6.146;2022-10-26T05:20:37;101209.75;;;10.67;100.00
31538;BME280;18147;51.952;6.146;2022-10-26T05:23:05;101207.25;;;10.79;100.00
31538;BME280;18147;51.952;6.146;2022-10-26T05:25:33;101206.78;;;10.87;100.00
31538;BME280;18147;51.952;6.146;2022-10-26T05:28:00;101197.50;;;11.08;100.00
31538;BME280;18147;51.952;6.146;2022-10-26T05:30:27;101198.16;;;11.12;100.00
31538;BME280;18147;51.952;6.146;2022-10-26T05:32:57;101202.66;;;11.11;100.00
31538;BME280;18147;51.952;6.146;2022-10-26T05:35:23;101201.22;;;11.06;100.00
31538;BME280;18147;51.952;6.146;2022-10-26T05:37:50;101203.06;;;11.20;100.00
31538;BME280;18147;51.952;6.146;2022-10-26T05:40:16;101202.56;;;11.13;100.00
31538;BME280;18147;51.952;6.146;2022-10-26T05:42:42;101197.34;;;11.26;100.00
31538;BME280;18147;51.952;6.146;2022-10-26T05:45:08;101201.84;;;11.25;100.00
31538;BME280;18147;51.952;6.146;2022-10-26T05:47:41;101206.00;;;11.29;100.00
31538;BME280;18147;51.952;6.146;2022-10-26T05:50:06;101203.16;;;11.32;100.00
31538;BME280;18147;51.952;6.146;2022-10-26T05:52:43;101200.03;;;11.40;100.00
31538;BME280;18147;51.952;6.146;2022-10-26T05:55:10;101205.84;;;11.47;100.00
31538;BME280;18147;51.952;6.146;2022-10-26T05:57:37;101199.66;;;11.46;100.00
31538;BME280;18147;51.952;6.146;2022-10-26T06:00:06;101209.84;;;11.54;100.00
31538;BME280;18147;51.952;6.146;2022-10-26T06:05:32;101210.44;;;11.59;100.00
31538;BME280;18147;51.952;6.146;2022-10-26T06:07:59;101219.50;;;11.56;100.00
31538;BME280;18147;51.952;6.146;2022-10-26T06:10:24;101217.41;;;11.61;100.00
31538;BME280;18147;51.952;6.146;2022-10-26T06:12:50;101221.69;;;11.64;100.00
31538;BME280;18147;51.952;6.146;2022-10-26T06:15:20;101216.44;;;11.62;100.00
31538;BME280;18147;51.952;6.146;2022-10-26T06:20:50;101225.03;;;11.67;100.00
31538;BME280;18147;51.952;6.146;2022-10-26T06:26:16;101220.09;;;11.76;100.00
31538;BME280;18147;51.952;6.146;2022-10-26T06:31:32;101228.19;;;11.74;100.00
31538;BME280;18147;51.952;6.146;2022-10-26T06:33:58;101226.28;;;11.76;100.00
31538;BME280;18147;51.952;6.146;2022-10-26T06:36:26;101229.13;;;11.73;100.00
31538;BME280;18147;51.952;6.146;2022-10-26T06:39:00;101235.34;;;11.74;100.00
31538;BME280;18147;51.952;6.146;2022-10-26T06:41:27;101236.97;;;11.76;100.00
31538;BME280;18147;51.952;6.146;2022-10-26T06:43:55;101236.97;;;11.76;100.00
31538;BME280;18147;51.952;6.146;2022-10-26T06:46:47;101232.31;;;11.80;100.00
31538;BME280;18147;51.952;6.146;2022-10-26T06:49:22;101248.00;;;11.86;100.00
31538;BME280;18147;51.952;6.146;2022-10-26T06:51:58;101237.78;;;11.92;100.00
31538;BME280;18147;51.952;6.146;2022-10-26T06:54:29;101240.16;;;11.97;100.00
31538;BME280;18147;51.952;6.146;2022-10-26T06:56:56;101235.38;;;12.02;100.00
31538;BME280;18147;51.952;6.146;2022-10-26T06:59:44;101235.84;;;12.09;100.00
31538;BME280;18147;51.952;6.146;2022-10-26T07:02:11;101233.84;;;12.12;100.00
31538;BME280;18147;51.952;6.146;2022-10-26T07:04:39;101226.56;;;12.14;100.00
31538;BME280;18147;51.952;6.146;2022-10-26T07:07:04;101233.66;;;12.15;100.00
31538;BME280;18147;51.952;6.146;2022-10-26T07:09:30;101227.13;;;12.19;100.00
31538;BME280;18147;51.952;6.146;2022-10-26T07:11:55;101232.56;;;12.32;100.00
31538;BME280;18147;51.952;6.146;2022-10-26T07:14:21;101220.72;;;12.36;100.00
31538;BME280;18147;51.952;6.146;2022-10-26T07:16:46;101224.22;;;12.51;100.00
31538;BME280;18147;51.952;6.146;2022-10-26T07:19:11;101224.56;;;12.59;100.00
31538;BME280;18147;51.952;6.146;2022-10-26T07:21:37;101227.47;;;12.69;100.00
31538;BME280;18147;51.952;6.146;2022-10-26T07:24:02;101232.53;;;12.74;100.00
31538;BME280;18147;51.952;6.146;2022-10-26T07:26:28;101225.31;;;12.88;100.00
31538;BME280;18147;51.952;6.146;2022-10-26T07:28:53;101225.44;;;13.00;100.00
31538;BME280;18147;51.952;6.146;2022-10-26T07:31:19;101224.50;;;13.01;100.00
31538;BME280;18147;51.952;6.146;2022-10-26T07:33:44;101214.72;;;13.27;100.00
31538;BME280;18147;51.952;6.146;2022-10-26T07:36:11;101214.28;;;13.33;100.00
31538;BME280;18147;51.952;6.146;2022-10-26T07:38:37;101212.34;;;13.35;100.00
31538;BME280;18147;51.952;6.146;2022-10-26T07:41:03;101223.75;;;13.51;100.00
31538;BME280;18147;51.952;6.146;2022-10-26T07:43:29;101226.63;;;13.61;100.00
31538;BME280;18147;51.952;6.146;2022-10-26T07:45:54;101220.72;;;13.68;100.00
31538;BME280;18147;51.952;6.146;2022-10-26T07:48:20;101228.84;;;13.80;100.00
31538;BME280;18147;51.952;6.146;2022-10-26T07:50:46;101235.19;;;13.91;100.00
31538;BME280;18147;51.952;6.146;2022-10-26T07:53:12;101243.03;;;13.82;100.00
31538;BME280;18147;51.952;6.146;2022-10-26T07:55:37;101245.03;;;13.65;100.00
31538;BME280;18147;51.952;6.146;2022-10-26T07:58:03;101242.06;;;13.57;100.00
31538;BME280;18147;51.952;6.146;2022-10-26T08:00:28;101244.66;;;13.71;100.00
31538;BME280;18147;51.952;6.146;2022-10-26T08:02:55;101250.75;;;13.73;100.00
31538;BME280;18147;51.952;6.146;2022-10-26T08:05:20;101256.31;;;13.83;100.00
31538;BME280;18147;51.952;6.146;2022-10-26T08:07:46;101257.25;;;14.08;100.00
31538;BME280;18147;51.952;6.146;2022-10-26T08:10:12;101264.34;;;14.09;100.00
31538;BME280;18147;51.952;6.146;2022-10-26T08:12:38;101263.03;;;14.14;100.00
31538;BME280;18147;51.952;6.146;2022-10-26T08:15:04;101263.34;;;14.22;100.00
31538;BME280;18147;51.952;6.146;2022-10-26T08:17:30;101256.38;;;14.20;100.00
31538;BME280;18147;51.952;6.146;2022-10-26T08:19:56;101254.41;;;14.35;100.00
31538;BME280;18147;51.952;6.146;2022-10-26T08:22:21;101260.53;;;14.37;100.00
31538;BME280;18147;51.952;6.146;2022-10-26T08:24:47;101266.53;;;14.53;100.00
31538;BME280;18147;51.952;6.146;2022-10-26T08:27:13;101267.25;;;14.55;100.00
31538;BME280;18147;51.952;6.146;2022-10-26T08:29:39;101271.28;;;14.73;100.00
31538;BME280;18147;51.952;6.146;2022-10-26T08:32:05;101280.53;;;14.69;100.00
31538;BME280;18147;51.952;6.146;2022-10-26T08:34:31;101278.53;;;14.84;100.00
31538;BME280;18147;51.952;6.146;2022-10-26T08:36:57;101281.56;;;14.80;100.00
31538;BME280;18147;51.952;6.146;2022-10-26T08:39:23;101270.09;;;14.77;100.00
31538;BME280;18147;51.952;6.146;2022-10-26T08:41:55;101267.06;;;14.82;100.00
31538;BME280;18147;51.952;6.146;2022-10-26T08:44:39;101283.69;;;15.11;100.00
31538;BME280;18147;51.952;6.146;2022-10-26T08:47:53;101296.88;;;15.14;100.00
31538;BME280;18147;51.952;6.146;2022-10-26T08:50:03;101291.31;;;15.28;100.00
31538;BME280;18147;51.952;6.146;2022-10-26T08:52:35;101297.41;;;15.31;100.00
31538;BME280;18147;51.952;6.146;2022-10-26T08:55:03;101290.53;;;15.50;100.00
31538;BME280;18147;51.952;6.146;2022-10-26T09:00:06;101287.44;;;15.68;100.00
31538;BME280;18147;51.952;6.146;2022-10-26T09:02:34;101297.34;;;15.67;100.00
31538;BME280;18147;51.952;6.146;2022-10-26T09:05:00;101296.28;;;15.92;100.00
31538;BME280;18147;51.952;6.146;2022-10-26T09:10:33;101296.53;;;16.12;100.00
31538;BME280;18147;51.952;6.146;2022-10-26T09:16:29;101285.88;;;16.33;100.00
31538;BME280;18147;51.952;6.146;2022-10-26T09:22:03;101306.19;;;16.48;100.00
31538;BME280;18147;51.952;6.146;2022-10-26T09:24:33;101309.63;;;16.39;100.00
31538;BME280;18147;51.952;6.146;2022-10-26T09:29:50;101317.91;;;16.80;100.00
31538;BME280;18147;51.952;6.146;2022-10-26T09:32:18;101321.44;;;16.81;100.00
31538;BME280;18147;51.952;6.146;2022-10-26T09:34:50;101321.56;;;16.68;100.00
31538;BME280;18147;51.952;6.146;2022-10-26T09:37:27;101321.44;;;16.81;100.00
31538;BME280;18147;51.952;6.146;2022-10-26T09:42:24;101320.31;;;16.95;100.00
31538;BME280;18147;51.952;6.146;2022-10-26T09:45:04;101311.72;;;17.01;100.00
31538;BME280;18147;51.952;6.146;2022-10-26T09:47:34;101317.16;;;16.90;100.00
31538;BME280;18147;51.952;6.146;2022-10-26T09:50:28;101319.34;;;16.96;100.00
31538;BME280;18147;51.952;6.146;2022-10-26T09:52:51;101317.13;;;17.01;100.00
31538;BME280;18147;51.952;6.146;2022-10-26T09:55:17;101317.75;;;17.25;99.93
31538;BME280;18147;51.952;6.146;2022-10-26T09:57:49;101317.13;;;17.33;99.44
31538;BME280;18147;51.952;6.146;2022-10-26T10:00:18;101317.78;;;17.46;98.15
31538;BME280;18147;51.952;6.146;2022-10-26T10:02:47;101318.63;;;17.26;99.04
31538;BME280;18147;51.952;6.146;2022-10-26T10:05:21;101320.31;;;17.27;98.34
31538;BME280;18147;51.952;6.146;2022-10-26T10:07:48;101322.34;;;17.67;97.20
31538;BME280;18147;51.952;6.146;2022-10-26T10:10:20;101328.34;;;17.70;96.79
31538;BME280;18147;51.952;6.146;2022-10-26T10:12:47;101330.56;;;17.65;97.15
31538;BME280;18147;51.952;6.146;2022-10-26T10:15:22;101344.53;;;17.70;96.92
31538;BME280;18147;51.952;6.146;2022-10-26T10:17:53;101346.00;;;17.74;94.60
31538;BME280;18147;51.952;6.146;2022-10-26T10:20:49;101341.00;;;17.91;96.44
31538;BME280;18147;51.952;6.146;2022-10-26T10:23:46;101348.22;;;17.69;97.34
31538;BME280;18147;51.952;6.146;2022-10-26T10:26:09;101363.19;;;17.73;96.04
31538;BME280;18147;51.952;6.146;2022-10-26T10:28:36;101366.84;;;17.72;97.95
31538;BME280;18147;51.952;6.146;2022-10-26T10:31:05;101378.28;;;17.65;98.33
31538;BME280;18147;51.952;6.146;2022-10-26T10:33:39;101394.81;;;17.92;97.06
31538;BME280;18147;51.952;6.146;2022-10-26T10:36:08;101395.25;;;17.88;96.44
31538;BME280;18147;51.952;6.146;2022-10-26T10:38:39;101398.28;;;17.62;99.84
31538;BME280;18147;51.952;6.146;2022-10-26T10:41:15;101399.75;;;17.87;97.91
31538;BME280;18147;51.952;6.146;2022-10-26T10:43:47;101401.09;;;17.93;99.47
31538;BME280;18147;51.952;6.146;2022-10-26T10:46:19;101397.06;;;18.29;97.23
31538;BME280;18147;51.952;6.146;2022-10-26T10:48:47;101389.22;;;18.26;96.93
31538;BME280;18147;51.952;6.146;2022-10-26T10:51:19;101401.28;;;18.22;95.83
31538;BME280;18147;51.952;6.146;2022-10-26T10:53:50;101400.31;;;18.23;96.91
31538;BME280;18147;51.952;6.146;2022-10-26T10:56:36;101394.53;;;18.37;97.02
31538;BME280;18147;51.952;6.146;2022-10-26T10:59:27;101392.66;;;18.07;96.29
31538;BME280;18147;51.952;6.146;2022-10-26T11:10:20;101401.28;;;18.22;97.67
31538;BME280;18147;51.952;6.146;2022-10-26T11:13:06;101405.19;;;18.08;98.87
31538;BME280;18147;51.952;6.146;2022-10-26T11:15:39;101415.50;;;18.24;97.53
31538;BME280;18147;51.952;6.146;2022-10-26T11:18:21;101418.06;;;18.25;96.63
31538;BME280;18147;51.952;6.146;2022-10-26T11:20:56;101424.47;;;18.24;96.09
31538;BME280;18147;51.952;6.146;2022-10-26T11:23:47;101416.88;;;18.39;96.06
31538;BME280;18147;51.952;6.146;2022-10-26T11:26:34;101424.22;;;18.27;95.45
31538;BME280;18147;51.952;6.146;2022-10-26T11:29:43;101420.97;;;18.33;95.97
31538;BME280;18147;51.952;6.146;2022-10-26T11:32:20;101417.03;;;18.47;95.10
31538;BME280;18147;51.952;6.146;2022-10-26T11:40:15;101429.75;;;18.56;95.76
31538;BME280;18147;51.952;6.146;2022-10-26T11:45:40;101432.41;;;18.98;94.37
31538;BME280;18147;51.952;6.146;2022-10-26T11:48:19;101435.50;;;18.94;94.16
31538;BME280;18147;51.952;6.146;2022-10-26T11:50:52;101431.81;;;18.95;93.68
31538;BME280;18147;51.952;6.146;2022-10-26T11:53:23;101430.13;;;19.03;93.55
31538;BME280;18147;51.952;6.146;2022-10-26T11:55:51;101433.53;;;19.05;93.58
31538;BME280;18147;51.952;6.146;2022-10-26T11:58:22;101434.81;;;19.01;93.58
31538;BME280;18147;51.952;6.146;2022-10-26T12:00:57;101442.16;;;18.89;93.08
31538;BME280;18147;51.952;6.146;2022-10-26T12:03:31;101440.34;;;19.00;93.01
31538;BME280;18147;51.952;6.146;2022-10-26T12:05:57;101450.91;;;19.03;93.02
31538;BME280;18147;51.952;6.146;2022-10-26T12:08:30;101456.72;;;18.98;92.45
31538;BME280;18147;51.952;6.146;2022-10-26T12:13:51;101459.91;;;19.13;93.17
31538;BME280;18147;51.952;6.146;2022-10-26T12:16:38;101467.28;;;19.11;92.50
31538;BME280;18147;51.952;6.146;2022-10-26T12:19:45;101476.13;;;19.23;93.00
31538;BME280;18147;51.952;6.146;2022-10-26T12:22:15;101484.34;;;19.11;93.06
31538;BME280;18147;51.952;6.146;2022-10-26T12:24:44;101487.09;;;19.21;95.36
31538;BME280;18147;51.952;6.146;2022-10-26T12:35:32;101472.28;;;19.15;92.35
31538;BME280;18147;51.952;6.146;2022-10-26T12:37:59;101470.56;;;19.14;93.46
31538;BME280;18147;51.952;6.146;2022-10-26T12:40:39;101477.91;;;19.33;92.71
31538;BME280;18147;51.952;6.146;2022-10-26T12:45:40;101464.47;;;19.22;94.75
31538;BME280;18147;51.952;6.146;2022-10-26T12:48:22;101457.50;;;19.20;93.60
31538;BME280;18147;51.952;6.146;2022-10-26T12:50:51;101468.16;;;19.21;93.05
31538;BME280;18147;51.952;6.146;2022-10-26T12:53:19;101473.16;;;19.26;93.15
31538;BME280;18147;51.952;6.146;2022-10-26T13:01:57;101485.38;;;19.20;91.46
31538;BME280;18147;51.952;6.146;2022-10-26T13:07:16;101503.16;;;19.13;96.04
31538;BME280;18147;51.952;6.146;2022-10-26T13:09:45;101488.94;;;19.21;95.93
31538;BME280;18147;51.952;6.146;2022-10-26T13:12:14;101499.75;;;19.21;94.87
31538;BME280;18147;51.952;6.146;2022-10-26T13:14:51;101503.41;;;19.10;95.05
31538;BME280;18147;51.952;6.146;2022-10-26T13:17:26;101500.34;;;19.24;95.12
31538;BME280;18147;51.952;6.146;2022-10-26T13:19:57;101515.69;;;19.14;96.26
31538;BME280;18147;51.952;6.146;2022-10-26T13:22:23;101509.53;;;19.12;95.56
31538;BME280;18147;51.952;6.146;2022-10-26T13:24:57;101507.13;;;19.09;96.52
31538;BME280;18147;51.952;6.146;2022-10-26T13:32:29;101513.38;;;19.09;95.27
31538;BME280;18147;51.952;6.146;2022-10-26T13:34:56;101515.34;;;19.07;96.13
31538;BME280;18147;51.952;6.146;2022-10-26T13:37:26;101515.38;;;19.17;95.40
31538;BME280;18147;51.952;6.146;2022-10-26T13:39:53;101516.84;;;19.21;94.82
31538;BME280;18147;51.952;6.146;2022-10-26T13:42:25;101510.44;;;19.22;94.78
31538;BME280;18147;51.952;6.146;2022-10-26T13:44:54;101513.88;;;19.24;95.24
31538;BME280;18147;51.952;6.146;2022-10-26T13:47:41;101510.56;;;19.21;94.57
31538;BME280;18147;51.952;6.146;2022-10-26T13:50:17;101519.53;;;19.21;94.35
31538;BME280;18147;51.952;6.146;2022-10-26T13:52:50;101519.06;;;19.06;92.47
31538;BME280;18147;51.952;6.146;2022-10-26T13:55:33;101510.03;;;18.96;92.60
31538;BME280;18147;51.952;6.146;2022-10-26T14:01:16;101517.44;;;18.94;91.63
31538;BME280;18147;51.952;6.146;2022-10-26T14:03:45;101517.94;;;18.78;92.70
31538;BME280;18147;51.952;6.146;2022-10-26T14:06:33;101532.00;;;18.82;93.00
31538;BME280;18147;51.952;6.146;2022-10-26T14:09:03;101522.16;;;18.71;93.41
31538;BME280;18147;51.952;6.146;2022-10-26T14:11:36;101531.38;;;18.69;93.61
31538;BME280;18147;51.952;6.146;2022-10-26T14:14:13;101532.59;;;18.85;92.30
31538;BME280;18147;51.952;6.146;2022-10-26T14:16:41;101528.28;;;18.73;94.28
31538;BME280;18147;51.952;6.146;2022-10-26T14:19:24;101531.44;;;18.78;94.18
31538;BME280;18147;51.952;6.146;2022-10-26T14:21:51;101531.56;;;18.77;94.37
31538;BME280;18147;51.952;6.146;2022-10-26T14:24:27;101528.91;;;18.86;93.87
31538;BME280;18147;51.952;6.146;2022-10-26T14:26:53;101527.91;;;18.67;95.70
31538;BME280;18147;51.952;6.146;2022-10-26T14:29:21;101527.75;;;18.58;95.09
31538;BME280;18147;51.952;6.146;2022-10-26T14:31:47;101539.25;;;18.60;94.29
31538;BME280;18147;51.952;6.146;2022-10-26T14:34:14;101543.47;;;18.53;95.66
31538;BME280;18147;51.952;6.146;2022-10-26T14:41:55;101553.47;;;18.42;99.20
31538;BME280;18147;51.952;6.146;2022-10-26T14:44:23;101569.03;;;18.49;98.34